UAL1453 KBUR-KSFO
Flight info
| Callsign | UAL1453 |
|---|---|
| Flight time | 0h 51m |
| Altitude | 36000 |
| Route | VNY3 FIM RZS STOKD SERFR SERFR4 |
| Aircraft | B738/M-SDE2E3FGHIRWXY/LB1 |
Departure
| Time | 2026-05-07 17:01 |
|---|---|
| Airport | Hollywood Burbank/Bob Hope Airport (KBUR) |
Arrival
| Time | 2026-05-07 17:52 |
|---|---|
| Airport | San Francisco International Airport (KSFO) |
| Time | Latitude | Longitude | Altitude | Speed | Heading |
|---|---|---|---|---|---|
| 2026-05-07 16:26 | 34.19679 | -118.35285 | 695 ft | 0 kts | 181° |
| 2026-05-07 16:50 | 34.19700 | -118.35285 | 688 ft | 1 kts | 181° |
| 2026-05-07 16:50 | 34.19717 | -118.35282 | 688 ft | 4 kts | 245° |
| 2026-05-07 16:51 | 34.19719 | -118.35254 | 685 ft | 4 kts | 271° |
| 2026-05-07 16:51 | 34.19719 | -118.35246 | 691 ft | 0 kts | 271° |
| 2026-05-07 16:55 | 34.19719 | -118.35251 | 688 ft | 3 kts | 270° |
| 2026-05-07 16:55 | 34.19721 | -118.35313 | 695 ft | 11 kts | 272° |
| 2026-05-07 16:55 | 34.19747 | -118.35414 | 690 ft | 13 kts | 294° |
| 2026-05-07 16:56 | 34.19796 | -118.35503 | 697 ft | 13 kts | 327° |
| 2026-05-07 16:56 | 34.19877 | -118.35538 | 694 ft | 13 kts | 348° |
| 2026-05-07 16:56 | 34.20061 | -118.35589 | 698 ft | 14 kts | 346° |
| 2026-05-07 16:57 | 34.20154 | -118.35613 | 702 ft | 13 kts | 347° |
| 2026-05-07 16:57 | 34.20250 | -118.35639 | 714 ft | 17 kts | 347° |
| 2026-05-07 16:57 | 34.20381 | -118.35676 | 719 ft | 20 kts | 347° |
| 2026-05-07 16:57 | 34.20513 | -118.35712 | 724 ft | 19 kts | 347° |
| 2026-05-07 16:58 | 34.20640 | -118.35747 | 730 ft | 18 kts | 346° |
| 2026-05-07 16:58 | 34.20763 | -118.35780 | 740 ft | 18 kts | 348° |
| 2026-05-07 16:58 | 34.20881 | -118.35813 | 748 ft | 17 kts | 347° |
| 2026-05-07 16:58 | 34.20995 | -118.35845 | 753 ft | 17 kts | 346° |
| 2026-05-07 16:59 | 34.21105 | -118.35876 | 765 ft | 16 kts | 344° |
| 2026-05-07 16:59 | 34.21156 | -118.35909 | 769 ft | 4 kts | 319° |
| 2026-05-07 16:59 | 34.21181 | -118.35941 | 771 ft | 8 kts | 314° |
| 2026-05-07 16:59 | 34.21218 | -118.36017 | 773 ft | 12 kts | 273° |
| 2026-05-07 17:00 | 34.21188 | -118.36034 | 772 ft | 5 kts | 170° |
| 2026-05-07 17:00 | 34.21128 | -118.36019 | 770 ft | 17 kts | 167° |
| 2026-05-07 17:00 | 34.20730 | -118.35909 | 740 ft | 101 kts | 167° |
| 2026-05-07 17:00 | 34.19801 | -118.35645 | 714 ft | 169 kts | 166° |
| 2026-05-07 17:01 | 34.18566 | -118.35311 | 1335 ft | 186 kts | 168° |
| 2026-05-07 17:01 | 34.17285 | -118.35317 | 2176 ft | 195 kts | 201° |
| 2026-05-07 17:01 | 34.16133 | -118.36333 | 2509 ft | 220 kts | 224° |
| 2026-05-07 17:01 | 34.14999 | -118.37716 | 2892 ft | 238 kts | 228° |
| 2026-05-07 17:02 | 34.13885 | -118.39208 | 3523 ft | 245 kts | 231° |
| 2026-05-07 17:02 | 34.12783 | -118.40790 | 4233 ft | 250 kts | 232° |
| 2026-05-07 17:03 | 34.11719 | -118.42342 | 4677 ft | 269 kts | 232° |
| 2026-05-07 17:04 | 34.10619 | -118.44194 | 5471 ft | 274 kts | 250° |
| 2026-05-07 17:04 | 34.10419 | -118.46432 | 6358 ft | 270 kts | 284° |
| 2026-05-07 17:04 | 34.11252 | -118.48434 | 7229 ft | 269 kts | 310° |
| 2026-05-07 17:04 | 34.12421 | -118.50244 | 8007 ft | 277 kts | 310° |
| 2026-05-07 17:05 | 34.13598 | -118.52110 | 8872 ft | 281 kts | 310° |
| 2026-05-07 17:05 | 34.14782 | -118.54000 | 9758 ft | 285 kts | 310° |
| 2026-05-07 17:05 | 34.15993 | -118.55942 | 10446 ft | 296 kts | 310° |
| 2026-05-07 17:05 | 34.17284 | -118.58018 | 10647 ft | 322 kts | 310° |
| 2026-05-07 17:06 | 34.18682 | -118.60273 | 10843 ft | 346 kts | 310° |
| 2026-05-07 17:06 | 34.20142 | -118.62644 | 11343 ft | 358 kts | 309° |
| 2026-05-07 17:06 | 34.21639 | -118.65086 | 12075 ft | 361 kts | 309° |
| 2026-05-07 17:06 | 34.23138 | -118.67536 | 12855 ft | 364 kts | 310° |
| 2026-05-07 17:07 | 34.24652 | -118.70011 | 13620 ft | 368 kts | 310° |
| 2026-05-07 17:07 | 34.26181 | -118.72510 | 14298 ft | 372 kts | 310° |
| 2026-05-07 17:07 | 34.27730 | -118.75042 | 14970 ft | 375 kts | 310° |
| 2026-05-07 17:07 | 34.29286 | -118.77588 | 15642 ft | 378 kts | 310° |
| 2026-05-07 17:08 | 34.30860 | -118.80162 | 16318 ft | 381 kts | 310° |
| 2026-05-07 17:08 | 34.32426 | -118.82726 | 16958 ft | 385 kts | 310° |
| 2026-05-07 17:08 | 34.34023 | -118.85352 | 17578 ft | 389 kts | 309° |
| 2026-05-07 17:08 | 34.35394 | -118.88218 | 18174 ft | 399 kts | 299° |
| 2026-05-07 17:09 | 34.36367 | -118.91398 | 18739 ft | 408 kts | 289° |
| 2026-05-07 17:09 | 34.37006 | -118.94773 | 19296 ft | 412 kts | 286° |
| 2026-05-07 17:09 | 34.37583 | -118.98192 | 19821 ft | 416 kts | 285° |
| 2026-05-07 17:09 | 34.38149 | -119.01646 | 20354 ft | 419 kts | 285° |
| 2026-05-07 17:10 | 34.38723 | -119.05127 | 20862 ft | 423 kts | 285° |
| 2026-05-07 17:10 | 34.39304 | -119.08589 | 21337 ft | 427 kts | 285° |
| 2026-05-07 17:10 | 34.39909 | -119.12134 | 21845 ft | 430 kts | 286° |
| 2026-05-07 17:10 | 34.40519 | -119.15693 | 22324 ft | 433 kts | 286° |
| 2026-05-07 17:11 | 34.41140 | -119.19283 | 22749 ft | 437 kts | 286° |
| 2026-05-07 17:11 | 34.41768 | -119.22909 | 23253 ft | 440 kts | 286° |
| 2026-05-07 17:11 | 34.42397 | -119.26552 | 23714 ft | 443 kts | 286° |
| 2026-05-07 17:11 | 34.43029 | -119.30211 | 24102 ft | 446 kts | 286° |
| 2026-05-07 17:12 | 34.43655 | -119.33850 | 24482 ft | 448 kts | 286° |
| 2026-05-07 17:12 | 34.44290 | -119.37551 | 24861 ft | 450 kts | 286° |
| 2026-05-07 17:12 | 34.44931 | -119.41290 | 25230 ft | 453 kts | 285° |
| 2026-05-07 17:12 | 34.45573 | -119.45050 | 25602 ft | 456 kts | 285° |
| 2026-05-07 17:13 | 34.46216 | -119.48819 | 25988 ft | 458 kts | 285° |
| 2026-05-07 17:13 | 34.46864 | -119.52624 | 26383 ft | 460 kts | 285° |
| 2026-05-07 17:13 | 34.47511 | -119.56433 | 26738 ft | 463 kts | 285° |
| 2026-05-07 17:13 | 34.48155 | -119.60230 | 27070 ft | 466 kts | 285° |
| 2026-05-07 17:14 | 34.48808 | -119.64086 | 27419 ft | 468 kts | 285° |
| 2026-05-07 17:14 | 34.49464 | -119.67967 | 27766 ft | 471 kts | 285° |
| 2026-05-07 17:14 | 34.50146 | -119.71853 | 28100 ft | 471 kts | 289° |
| 2026-05-07 17:14 | 34.51294 | -119.75554 | 28405 ft | 467 kts | 301° |
| 2026-05-07 17:15 | 34.53003 | -119.78894 | 28747 ft | 463 kts | 311° |
| 2026-05-07 17:15 | 34.55165 | -119.81763 | 29057 ft | 459 kts | 322° |
| 2026-05-07 17:15 | 34.57573 | -119.84312 | 29368 ft | 460 kts | 323° |
| 2026-05-07 17:15 | 34.60012 | -119.86833 | 29763 ft | 459 kts | 323° |
| 2026-05-07 17:16 | 34.61624 | -119.88497 | 30092 ft | 458 kts | 323° |
| 2026-05-07 17:16 | 34.64035 | -119.90997 | 30540 ft | 455 kts | 323° |
| 2026-05-07 17:16 | 34.66434 | -119.93509 | 30904 ft | 454 kts | 323° |
| 2026-05-07 17:16 | 34.69596 | -119.96848 | 31330 ft | 454 kts | 323° |
| 2026-05-07 17:17 | 34.71205 | -119.98557 | 31549 ft | 454 kts | 323° |
| 2026-05-07 17:17 | 34.74343 | -120.01900 | 32023 ft | 452 kts | 323° |
| 2026-05-07 17:17 | 34.76705 | -120.04422 | 32370 ft | 452 kts | 323° |
| 2026-05-07 17:17 | 34.79064 | -120.06944 | 32725 ft | 451 kts | 323° |
| 2026-05-07 17:18 | 34.80656 | -120.08647 | 32968 ft | 450 kts | 323° |
| 2026-05-07 17:18 | 34.83001 | -120.11155 | 33325 ft | 449 kts | 323° |
| 2026-05-07 17:18 | 34.85344 | -120.13665 | 33666 ft | 448 kts | 323° |
| 2026-05-07 17:18 | 34.87689 | -120.16176 | 33994 ft | 447 kts | 323° |
| 2026-05-07 17:19 | 34.89993 | -120.18645 | 34281 ft | 446 kts | 323° |
| 2026-05-07 17:19 | 34.92322 | -120.21144 | 34590 ft | 445 kts | 323° |
| 2026-05-07 17:19 | 34.94645 | -120.23638 | 34857 ft | 445 kts | 323° |
| 2026-05-07 17:19 | 34.96966 | -120.26131 | 35112 ft | 444 kts | 323° |
| 2026-05-07 17:20 | 34.99284 | -120.28624 | 35381 ft | 443 kts | 323° |
| 2026-05-07 17:20 | 35.01591 | -120.31107 | 35670 ft | 442 kts | 323° |
| 2026-05-07 17:20 | 35.03894 | -120.33588 | 35938 ft | 441 kts | 323° |
| 2026-05-07 17:20 | 35.06193 | -120.36065 | 36124 ft | 442 kts | 323° |
| 2026-05-07 17:21 | 35.10818 | -120.41053 | 36107 ft | 443 kts | 322° |
| 2026-05-07 17:21 | 35.15390 | -120.45996 | 36095 ft | 440 kts | 322° |
| 2026-05-07 17:22 | 35.19955 | -120.50939 | 36091 ft | 437 kts | 322° |
| 2026-05-07 17:22 | 35.24504 | -120.55871 | 36087 ft | 435 kts | 322° |
| 2026-05-07 17:23 | 35.29030 | -120.60785 | 36100 ft | 434 kts | 322° |
| 2026-05-07 17:23 | 35.33560 | -120.65711 | 36103 ft | 435 kts | 322° |
| 2026-05-07 17:24 | 35.38086 | -120.70641 | 36113 ft | 436 kts | 322° |
| 2026-05-07 17:24 | 35.42604 | -120.75571 | 36128 ft | 439 kts | 322° |
| 2026-05-07 17:25 | 35.47182 | -120.80573 | 36156 ft | 442 kts | 322° |
| 2026-05-07 17:25 | 35.51939 | -120.85350 | 36151 ft | 441 kts | 326° |
| 2026-05-07 17:26 | 35.56874 | -120.89851 | 36158 ft | 442 kts | 327° |
| 2026-05-07 17:26 | 35.61812 | -120.94358 | 36153 ft | 442 kts | 326° |
| 2026-05-07 17:27 | 35.64274 | -120.96630 | 36005 ft | 442 kts | 323° |
| 2026-05-07 17:27 | 35.66705 | -120.98883 | 36060 ft | 434 kts | 323° |
| 2026-05-07 17:27 | 35.71433 | -121.03295 | 36140 ft | 427 kts | 323° |
| 2026-05-07 17:28 | 35.76173 | -121.07726 | 36149 ft | 428 kts | 323° |
| 2026-05-07 17:28 | 35.80922 | -121.12170 | 36157 ft | 429 kts | 323° |
| 2026-05-07 17:29 | 35.85720 | -121.16664 | 35534 ft | 438 kts | 323° |
| 2026-05-07 17:29 | 35.88145 | -121.18939 | 34895 ft | 438 kts | 323° |
| 2026-05-07 17:29 | 35.90571 | -121.21216 | 34276 ft | 438 kts | 323° |
| 2026-05-07 17:30 | 35.92998 | -121.23497 | 33528 ft | 440 kts | 323° |
| 2026-05-07 17:30 | 35.95436 | -121.25789 | 32863 ft | 440 kts | 323° |
| 2026-05-07 17:30 | 35.97865 | -121.28075 | 32381 ft | 436 kts | 323° |
| 2026-05-07 17:30 | 36.00233 | -121.30305 | 31880 ft | 433 kts | 323° |
| 2026-05-07 17:31 | 36.02620 | -121.32554 | 31401 ft | 430 kts | 323° |
| 2026-05-07 17:31 | 36.04995 | -121.34794 | 30915 ft | 427 kts | 323° |
| 2026-05-07 17:31 | 36.07360 | -121.36997 | 30411 ft | 425 kts | 325° |
| 2026-05-07 17:31 | 36.09835 | -121.39060 | 29598 ft | 428 kts | 328° |
| 2026-05-07 17:32 | 36.12360 | -121.41005 | 29016 ft | 426 kts | 329° |
| 2026-05-07 17:32 | 36.14881 | -121.42906 | 28503 ft | 421 kts | 329° |
| 2026-05-07 17:32 | 36.17372 | -121.44790 | 28003 ft | 418 kts | 329° |
| 2026-05-07 17:32 | 36.19837 | -121.46673 | 27525 ft | 414 kts | 329° |
| 2026-05-07 17:33 | 36.22267 | -121.48549 | 27047 ft | 410 kts | 329° |
| 2026-05-07 17:33 | 36.24681 | -121.50425 | 26576 ft | 407 kts | 328° |
| 2026-05-07 17:33 | 36.27037 | -121.52264 | 26108 ft | 404 kts | 328° |
| 2026-05-07 17:33 | 36.29403 | -121.54115 | 25662 ft | 401 kts | 328° |
| 2026-05-07 17:34 | 36.31756 | -121.55958 | 25201 ft | 398 kts | 328° |
| 2026-05-07 17:34 | 36.34096 | -121.57791 | 24742 ft | 396 kts | 328° |
| 2026-05-07 17:34 | 36.36418 | -121.59612 | 24279 ft | 394 kts | 328° |
| 2026-05-07 17:34 | 36.38736 | -121.61431 | 23806 ft | 393 kts | 328° |
| 2026-05-07 17:35 | 36.41048 | -121.63245 | 23277 ft | 391 kts | 328° |
| 2026-05-07 17:35 | 36.43341 | -121.65047 | 22795 ft | 388 kts | 328° |
| 2026-05-07 17:35 | 36.45613 | -121.66832 | 22324 ft | 385 kts | 328° |
| 2026-05-07 17:35 | 36.47869 | -121.68607 | 21866 ft | 382 kts | 328° |
| 2026-05-07 17:36 | 36.50106 | -121.70368 | 21413 ft | 379 kts | 328° |
| 2026-05-07 17:36 | 36.52333 | -121.72125 | 20925 ft | 378 kts | 328° |
| 2026-05-07 17:36 | 36.54545 | -121.73872 | 20469 ft | 375 kts | 328° |
| 2026-05-07 17:36 | 36.56737 | -121.75606 | 20029 ft | 373 kts | 328° |
| 2026-05-07 17:37 | 36.58894 | -121.77313 | 19606 ft | 371 kts | 328° |
| 2026-05-07 17:37 | 36.61067 | -121.79034 | 19167 ft | 369 kts | 328° |
| 2026-05-07 17:37 | 36.63231 | -121.80749 | 18719 ft | 367 kts | 328° |
| 2026-05-07 17:37 | 36.65382 | -121.82454 | 18258 ft | 366 kts | 328° |
| 2026-05-07 17:38 | 36.67537 | -121.84165 | 17785 ft | 364 kts | 328° |
| 2026-05-07 17:38 | 36.69668 | -121.85856 | 17336 ft | 361 kts | 328° |
| 2026-05-07 17:38 | 36.71779 | -121.87533 | 16901 ft | 359 kts | 328° |
| 2026-05-07 17:38 | 36.73897 | -121.89164 | 16471 ft | 356 kts | 333° |
| 2026-05-07 17:39 | 36.76232 | -121.90144 | 16039 ft | 353 kts | 347° |
| 2026-05-07 17:39 | 36.78624 | -121.90784 | 15598 ft | 351 kts | 348° |
| 2026-05-07 17:39 | 36.81018 | -121.91403 | 15181 ft | 350 kts | 348° |
| 2026-05-07 17:39 | 36.83360 | -121.92020 | 14764 ft | 348 kts | 348° |
| 2026-05-07 17:40 | 36.85756 | -121.92667 | 14280 ft | 349 kts | 348° |
| 2026-05-07 17:40 | 36.88108 | -121.93316 | 13753 ft | 351 kts | 347° |
| 2026-05-07 17:40 | 36.90492 | -121.93980 | 13270 ft | 350 kts | 347° |
| 2026-05-07 17:40 | 36.92864 | -121.94644 | 12834 ft | 348 kts | 347° |
| 2026-05-07 17:41 | 36.95223 | -121.95310 | 12404 ft | 346 kts | 346° |
| 2026-05-07 17:41 | 36.97538 | -121.96110 | 11965 ft | 344 kts | 342° |
| 2026-05-07 17:41 | 36.99817 | -121.97006 | 11550 ft | 342 kts | 341° |
| 2026-05-07 17:41 | 37.02081 | -121.97922 | 11137 ft | 341 kts | 341° |
| 2026-05-07 17:42 | 37.04333 | -121.98829 | 10731 ft | 339 kts | 341° |
| 2026-05-07 17:42 | 37.06553 | -121.99714 | 10546 ft | 330 kts | 341° |
| 2026-05-07 17:42 | 37.08724 | -122.00572 | 10384 ft | 322 kts | 341° |
| 2026-05-07 17:42 | 37.10834 | -122.01402 | 10238 ft | 313 kts | 341° |
| 2026-05-07 17:43 | 37.12857 | -122.02195 | 10121 ft | 302 kts | 341° |
| 2026-05-07 17:43 | 37.14843 | -122.02972 | 9931 ft | 291 kts | 341° |
| 2026-05-07 17:43 | 37.16773 | -122.03729 | 9632 ft | 290 kts | 341° |
| 2026-05-07 17:43 | 37.18661 | -122.04469 | 9351 ft | 288 kts | 341° |
| 2026-05-07 17:44 | 37.20572 | -122.05219 | 9053 ft | 287 kts | 341° |
| 2026-05-07 17:44 | 37.22471 | -122.05963 | 8757 ft | 285 kts | 341° |
| 2026-05-07 17:44 | 37.24383 | -122.06713 | 8476 ft | 283 kts | 341° |
| 2026-05-07 17:44 | 37.26253 | -122.07447 | 8183 ft | 282 kts | 341° |
| 2026-05-07 17:45 | 37.28098 | -122.08171 | 7870 ft | 282 kts | 341° |
| 2026-05-07 17:45 | 37.29974 | -122.08910 | 7503 ft | 283 kts | 341° |
| 2026-05-07 17:45 | 37.31860 | -122.09653 | 7142 ft | 284 kts | 341° |
| 2026-05-07 17:45 | 37.33753 | -122.10400 | 6774 ft | 286 kts | 341° |
| 2026-05-07 17:46 | 37.35651 | -122.11148 | 6375 ft | 283 kts | 341° |
| 2026-05-07 17:46 | 37.37513 | -122.11882 | 5992 ft | 277 kts | 341° |
| 2026-05-07 17:46 | 37.39343 | -122.12538 | 5641 ft | 271 kts | 343° |
| 2026-05-07 17:46 | 37.41139 | -122.13143 | 5310 ft | 266 kts | 344° |
| 2026-05-07 17:47 | 37.42921 | -122.13746 | 5002 ft | 267 kts | 344° |
| 2026-05-07 17:47 | 37.44723 | -122.14359 | 4651 ft | 268 kts | 344° |
| 2026-05-07 17:47 | 37.46528 | -122.14961 | 4323 ft | 269 kts | 345° |
| 2026-05-07 17:47 | 37.48339 | -122.15556 | 3993 ft | 270 kts | 344° |
| 2026-05-07 17:48 | 37.50166 | -122.16156 | 3644 ft | 271 kts | 345° |
| 2026-05-07 17:48 | 37.51992 | -122.16758 | 3308 ft | 271 kts | 345° |
| 2026-05-07 17:48 | 37.53715 | -122.17625 | 3023 ft | 262 kts | 320° |
| 2026-05-07 17:48 | 37.54727 | -122.19360 | 2886 ft | 246 kts | 291° |
| 2026-05-07 17:49 | 37.55362 | -122.21330 | 2589 ft | 239 kts | 295° |
| 2026-05-07 17:49 | 37.56103 | -122.23147 | 2286 ft | 228 kts | 298° |
| 2026-05-07 17:49 | 37.56835 | -122.24876 | 1987 ft | 218 kts | 297° |
| 2026-05-07 17:49 | 37.57524 | -122.26525 | 1706 ft | 206 kts | 297° |
| 2026-05-07 17:50 | 37.58161 | -122.28054 | 1416 ft | 187 kts | 296° |
| 2026-05-07 17:50 | 37.58736 | -122.29438 | 1187 ft | 171 kts | 296° |
| 2026-05-07 17:50 | 37.59261 | -122.30693 | 983 ft | 153 kts | 297° |
| 2026-05-07 17:50 | 37.59738 | -122.31841 | 753 ft | 144 kts | 297° |
| 2026-05-07 17:51 | 37.60201 | -122.32952 | 571 ft | 145 kts | 297° |
| 2026-05-07 17:51 | 37.60677 | -122.34088 | 354 ft | 147 kts | 297° |
| 2026-05-07 17:51 | 37.61146 | -122.35216 | 201 ft | 143 kts | 297° |
| 2026-05-07 17:51 | 37.61602 | -122.36303 | 34 ft | 134 kts | 296° |
| 2026-05-07 17:52 | 37.61989 | -122.37233 | 22 ft | 100 kts | 298° |
| 2026-05-07 17:52 | 37.62211 | -122.37768 | 21 ft | 40 kts | 290° |
| 2026-05-07 17:52 | 37.62229 | -122.38026 | 21 ft | 21 kts | 267° |
| 2026-05-07 17:52 | 37.62186 | -122.38193 | 21 ft | 21 kts | 214° |
| 2026-05-07 17:53 | 37.62093 | -122.38257 | 21 ft | 1 kts | 207° |
| 2026-05-07 17:54 | 37.62075 | -122.38269 | 22 ft | 6 kts | 207° |
| 2026-05-07 17:54 | 37.62034 | -122.38305 | 22 ft | 7 kts | 229° |
| 2026-05-07 17:54 | 37.62014 | -122.38305 | 22 ft | 2 kts | 131° |
| 2026-05-07 17:55 | 37.61979 | -122.38266 | 21 ft | 9 kts | 161° |
| 2026-05-07 17:55 | 37.61917 | -122.38283 | 21 ft | 9 kts | 206° |
| 2026-05-07 17:55 | 37.61872 | -122.38311 | 22 ft | 5 kts | 208° |
| 2026-05-07 17:55 | 37.61869 | -122.38313 | 22 ft | 0 kts | 209° |
| 2026-05-07 17:56 | 37.61865 | -122.38316 | 21 ft | 3 kts | 208° |
| 2026-05-07 17:56 | 37.61836 | -122.38336 | 23 ft | 6 kts | 211° |
| 2026-05-07 17:56 | 37.61838 | -122.38383 | 21 ft | 6 kts | 296° |
| 2026-05-07 17:57 | 37.61845 | -122.38400 | 22 ft | 0 kts | 297° |
| 2026-05-07 17:57 | 37.61846 | -122.38403 | 22 ft | 0 kts | 298° |
| 2026-05-07 17:57 | 37.61846 | -122.38404 | 22 ft | 0 kts | 298° |
| 2026-05-07 18:04 | 37.61846 | -122.38403 | 21 ft | 0 kts | 298° |